This is the latest recevied weather packets stored in our database for station/object WY1U-1. If no packets are shown the sender has not sent any weather packets the latest 10 day(s).
| Time | Temp. | Humidity | Pressure | Rain* | Wind** | Luminosity | Snow |
|---|---|---|---|---|---|---|---|
| 1788143510 | 74° F | 84% | 763.8 mmHg | 0 in | - | - | - |
| 1788130911 | 76° F | 75% | 763.3 mmHg | 0 in | - | - | - |
| 1788127312 | 77° F | 72% | 763.2 mmHg | 0 in | - | - | - |
| 1788123712 | 78° F | 66% | 763.3 mmHg | 0 in | - | - | - |
| 1788120111 | 80° F | 57% | 763.5 mmHg | 0 in | - | - | - |
| 1788116513 | 81° F | 53% | 764.1 mmHg | 0 in | - | - | - |
| 1788114710 | 81° F | 51% | 764.4 mmHg | 0 in | - | - | - |
| 1788112912 | 81° F | 53% | 764.5 mmHg | 0 in | - | - | - |
| 1788111110 | 81° F | 51% | 764.7 mmHg | 0 in | - | - | - |
| 1788109311 | 81° F | 48% | 764.9 mmHg | 0 in | - | - | - |
| 1788105712 | 80° F | 49% | 765.4 mmHg | 0 in | - | - | - |
| 1788102112 | 78° F | 52% | 765.9 mmHg | 0 in | - | - | - |
| 1788094910 | 69° F | 74% | 766.6 mmHg | 0 in | - | - | - |
| 1788080511 | 60° F | 91% | 766.8 mmHg | 0 in | - | - | - |
| 1788076912 | 59° F | 92% | 766.9 mmHg | 0 in | - | - | - |
| 1788073312 | 58° F | 92% | 767 mmHg | 0 in | - | - | - |
| 1788071510 | 59° F | 92% | 766.9 mmHg | 0 in | - | - | - |
| 1788069710 | 59° F | 92% | 766.6 mmHg | 0 in | - | - | - |
| 1788058910 | 61° F | 84% | 766.7 mmHg | 0 in | - | - | - |
| 1788055312 | 63° F | 80% | 766.8 mmHg | 0 in | - | - | - |
| 1788051711 | 64° F | 75% | 766.3 mmHg | 0 in | - | - | - |
| 1788048113 | 68° F | 67% | 766.3 mmHg | 0 in | - | - | - |
| 1788040911 | 77° F | 45% | 765.9 mmHg | 0 in | - | - | - |
| 1788037311 | 79° F | 41% | 766.5 mmHg | 0 in | - | - | - |
| 1788030111 | 78° F | 40% | 767 mmHg | 0 in | - | - | - |
* Rain latest hour (hover to see other rain measurements)
** Current wind speed in m/s (hover to see current wind gust speed)